sensor_id;sensor_type;location;lat;lon;timestamp;P1;durP1;ratioP1;P2;durP2;ratioP2
6342;SDS011;3204;42.698;23.298;2024-03-29T00:00:22;6.22;;;1.70;;
6342;SDS011;3204;42.698;23.298;2024-03-29T00:02:47;4.60;;;2.00;;
6342;SDS011;3204;42.698;23.298;2024-03-29T00:05:12;2.38;;;1.67;;
6342;SDS011;3204;42.698;23.298;2024-03-29T00:07:38;1.67;;;1.30;;
6342;SDS011;3204;42.698;23.298;2024-03-29T00:10:03;3.00;;;1.77;;
6342;SDS011;3204;42.698;23.298;2024-03-29T00:12:29;2.92;;;1.90;;
6342;SDS011;3204;42.698;23.298;2024-03-29T00:14:54;2.95;;;1.75;;
6342;SDS011;3204;42.698;23.298;2024-03-29T00:17:21;5.10;;;1.67;;
6342;SDS011;3204;42.698;23.298;2024-03-29T00:19:47;1.75;;;1.63;;
6342;SDS011;3204;42.698;23.298;2024-03-29T00:22:13;3.55;;;1.50;;
6342;SDS011;3204;42.698;23.298;2024-03-29T00:24:39;1.63;;;1.42;;
6342;SDS011;3204;42.698;23.298;2024-03-29T00:27:04;1.67;;;1.58;;
6342;SDS011;3204;42.698;23.298;2024-03-29T00:29:30;2.28;;;1.40;;
6342;SDS011;3204;42.698;23.298;2024-03-29T00:31:55;1.52;;;1.42;;
6342;SDS011;3204;42.698;23.298;2024-03-29T00:34:21;2.65;;;1.30;;
6342;SDS011;3204;42.698;23.298;2024-03-29T00:36:46;2.33;;;1.20;;
6342;SDS011;3204;42.698;23.298;2024-03-29T00:39:12;1.42;;;1.33;;
6342;SDS011;3204;42.698;23.298;2024-03-29T00:41:37;1.48;;;1.33;;
6342;SDS011;3204;42.698;23.298;2024-03-29T00:44:03;1.30;;;1.20;;
6342;SDS011;3204;42.698;23.298;2024-03-29T00:46:28;1.75;;;1.65;;
6342;SDS011;3204;42.698;23.298;2024-03-29T00:48:54;1.90;;;1.30;;
6342;SDS011;3204;42.698;23.298;2024-03-29T00:51:19;1.60;;;1.30;;
6342;SDS011;3204;42.698;23.298;2024-03-29T00:53:44;1.77;;;1.20;;
6342;SDS011;3204;42.698;23.298;2024-03-29T00:56:10;3.78;;;1.30;;
6342;SDS011;3204;42.698;23.298;2024-03-29T00:58:36;2.25;;;0.98;;
6342;SDS011;3204;42.698;23.298;2024-03-29T01:01:01;2.13;;;1.08;;
6342;SDS011;3204;42.698;23.298;2024-03-29T01:03:26;1.30;;;1.20;;
6342;SDS011;3204;42.698;23.298;2024-03-29T01:05:56;1.77;;;1.05;;
6342;SDS011;3204;42.698;23.298;2024-03-29T01:08:22;1.20;;;1.10;;
6342;SDS011;3204;42.698;23.298;2024-03-29T01:10:48;3.33;;;1.25;;
6342;SDS011;3204;42.698;23.298;2024-03-29T01:13:14;2.90;;;1.90;;
6342;SDS011;3204;42.698;23.298;2024-03-29T01:15:40;1.70;;;1.27;;
6342;SDS011;3204;42.698;23.298;2024-03-29T01:18:05;2.90;;;1.40;;
6342;SDS011;3204;42.698;23.298;2024-03-29T01:20:30;3.47;;;1.40;;
6342;SDS011;3204;42.698;23.298;2024-03-29T01:22:56;1.13;;;1.05;;
6342;SDS011;3204;42.698;23.298;2024-03-29T01:25:21;1.45;;;1.20;;
6342;SDS011;3204;42.698;23.298;2024-03-29T01:27:49;2.60;;;1.00;;
6342;SDS011;3204;42.698;23.298;2024-03-29T01:30:14;2.55;;;1.10;;
6342;SDS011;3204;42.698;23.298;2024-03-29T01:32:40;1.50;;;1.30;;
6342;SDS011;3204;42.698;23.298;2024-03-29T01:35:05;1.75;;;1.30;;
6342;SDS011;3204;42.698;23.298;2024-03-29T01:37:31;1.38;;;1.10;;
6342;SDS011;3204;42.698;23.298;2024-03-29T01:39:56;1.30;;;1.00;;
6342;SDS011;3204;42.698;23.298;2024-03-29T01:42:22;1.27;;;1.20;;
6342;SDS011;3204;42.698;23.298;2024-03-29T01:44:47;1.60;;;1.20;;
6342;SDS011;3204;42.698;23.298;2024-03-29T01:47:13;1.52;;;1.25;;
6342;SDS011;3204;42.698;23.298;2024-03-29T01:49:38;1.83;;;1.38;;
6342;SDS011;3204;42.698;23.298;2024-03-29T01:52:04;1.65;;;1.20;;
6342;SDS011;3204;42.698;23.298;2024-03-29T01:54:31;2.22;;;1.00;;
6342;SDS011;3204;42.698;23.298;2024-03-29T01:56:57;1.52;;;1.10;;
6342;SDS011;3204;42.698;23.298;2024-03-29T01:59:23;3.45;;;1.20;;
6342;SDS011;3204;42.698;23.298;2024-03-29T02:01:50;1.75;;;1.65;;
6342;SDS011;3204;42.698;23.298;2024-03-29T02:04:15;1.15;;;1.05;;
6342;SDS011;3204;42.698;23.298;2024-03-29T02:06:40;1.92;;;1.23;;
6342;SDS011;3204;42.698;23.298;2024-03-29T02:09:07;1.60;;;1.40;;
6342;SDS011;3204;42.698;23.298;2024-03-29T02:11:33;1.58;;;1.48;;
6342;SDS011;3204;42.698;23.298;2024-03-29T02:14:00;1.65;;;1.20;;
6342;SDS011;3204;42.698;23.298;2024-03-29T02:16:25;3.45;;;1.30;;
6342;SDS011;3204;42.698;23.298;2024-03-29T02:18:51;3.78;;;1.50;;
6342;SDS011;3204;42.698;23.298;2024-03-29T02:21:16;5.72;;;1.70;;
6342;SDS011;3204;42.698;23.298;2024-03-29T02:23:45;1.38;;;1.27;;
6342;SDS011;3204;42.698;23.298;2024-03-29T02:26:12;1.67;;;1.42;;
6342;SDS011;3204;42.698;23.298;2024-03-29T02:28:38;2.50;;;1.40;;
6342;SDS011;3204;42.698;23.298;2024-03-29T02:31:03;2.90;;;1.52;;
6342;SDS011;3204;42.698;23.298;2024-03-29T02:33:29;1.92;;;1.45;;
6342;SDS011;3204;42.698;23.298;2024-03-29T02:35:55;1.30;;;1.20;;
6342;SDS011;3204;42.698;23.298;2024-03-29T02:38:20;2.10;;;1.17;;
6342;SDS011;3204;42.698;23.298;2024-03-29T02:40:46;2.28;;;1.67;;
6342;SDS011;3204;42.698;23.298;2024-03-29T02:43:11;1.17;;;1.08;;
6342;SDS011;3204;42.698;23.298;2024-03-29T02:45:37;1.83;;;1.20;;
6342;SDS011;3204;42.698;23.298;2024-03-29T02:48:02;1.65;;;1.45;;
6342;SDS011;3204;42.698;23.298;2024-03-29T02:50:28;3.70;;;1.52;;
6342;SDS011;3204;42.698;23.298;2024-03-29T02:52:53;4.65;;;1.88;;
6342;SDS011;3204;42.698;23.298;2024-03-29T02:55:18;4.28;;;1.77;;
6342;SDS011;3204;42.698;23.298;2024-03-29T02:57:44;3.35;;;1.50;;
6342;SDS011;3204;42.698;23.298;2024-03-29T03:00:09;3.75;;;1.40;;
6342;SDS011;3204;42.698;23.298;2024-03-29T03:02:38;1.80;;;1.70;;
6342;SDS011;3204;42.698;23.298;2024-03-29T03:05:04;3.10;;;1.98;;
6342;SDS011;3204;42.698;23.298;2024-03-29T03:07:31;1.80;;;1.70;;
6342;SDS011;3204;42.698;23.298;2024-03-29T03:10:15;1.88;;;1.10;;
6342;SDS011;3204;42.698;23.298;2024-03-29T03:12:59;3.80;;;1.73;;
6342;SDS011;3204;42.698;23.298;2024-03-29T03:15:24;4.28;;;1.83;;
6342;SDS011;3204;42.698;23.298;2024-03-29T03:17:49;9.23;;;1.92;;
6342;SDS011;3204;42.698;23.298;2024-03-29T03:20:15;5.30;;;1.80;;
6342;SDS011;3204;42.698;23.298;2024-03-29T03:22:41;3.00;;;1.83;;
6342;SDS011;3204;42.698;23.298;2024-03-29T03:25:07;2.53;;;2.20;;
6342;SDS011;3204;42.698;23.298;2024-03-29T03:27:32;2.85;;;2.15;;
6342;SDS011;3204;42.698;23.298;2024-03-29T03:29:59;4.28;;;2.15;;
6342;SDS011;3204;42.698;23.298;2024-03-29T03:32:24;2.72;;;2.20;;
6342;SDS011;3204;42.698;23.298;2024-03-29T03:34:50;8.10;;;2.30;;
6342;SDS011;3204;42.698;23.298;2024-03-29T03:37:15;5.30;;;2.05;;
6342;SDS011;3204;42.698;23.298;2024-03-29T03:39:40;7.25;;;1.83;;
6342;SDS011;3204;42.698;23.298;2024-03-29T03:42:06;2.35;;;2.15;;
6342;SDS011;3204;42.698;23.298;2024-03-29T03:44:31;5.97;;;2.20;;
6342;SDS011;3204;42.698;23.298;2024-03-29T03:46:57;7.65;;;2.00;;
6342;SDS011;3204;42.698;23.298;2024-03-29T03:49:22;3.70;;;1.90;;
6342;SDS011;3204;42.698;23.298;2024-03-29T03:51:47;4.03;;;2.13;;
6342;SDS011;3204;42.698;23.298;2024-03-29T03:54:13;3.70;;;2.08;;
6342;SDS011;3204;42.698;23.298;2024-03-29T03:56:38;28.52;;;4.80;;
6342;SDS011;3204;42.698;23.298;2024-03-29T03:59:04;10.45;;;3.10;;
6342;SDS011;3204;42.698;23.298;2024-03-29T04:01:29;20.88;;;4.07;;
6342;SDS011;3204;42.698;23.298;2024-03-29T04:03:55;17.52;;;3.97;;
6342;SDS011;3204;42.698;23.298;2024-03-29T04:06:21;22.33;;;3.75;;
6342;SDS011;3204;42.698;23.298;2024-03-29T04:08:46;7.07;;;2.45;;
6342;SDS011;3204;42.698;23.298;2024-03-29T04:11:12;5.70;;;2.45;;
6342;SDS011;3204;42.698;23.298;2024-03-29T04:13:37;4.50;;;2.53;;
6342;SDS011;3204;42.698;23.298;2024-03-29T04:16:06;8.45;;;2.50;;
6342;SDS011;3204;42.698;23.298;2024-03-29T04:18:32;5.53;;;2.88;;
6342;SDS011;3204;42.698;23.298;2024-03-29T04:20:58;6.68;;;2.15;;
6342;SDS011;3204;42.698;23.298;2024-03-29T04:23:25;5.90;;;2.40;;
6342;SDS011;3204;42.698;23.298;2024-03-29T04:25:54;9.77;;;2.70;;
6342;SDS011;3204;42.698;23.298;2024-03-29T04:28:20;3.70;;;2.25;;
6342;SDS011;3204;42.698;23.298;2024-03-29T04:30:58;9.85;;;2.40;;
6342;SDS011;3204;42.698;23.298;2024-03-29T04:33:26;6.75;;;2.80;;
6342;SDS011;3204;42.698;23.298;2024-03-29T04:35:58;3.50;;;2.88;;
6342;SDS011;3204;42.698;23.298;2024-03-29T04:38:31;8.70;;;3.40;;
6342;SDS011;3204;42.698;23.298;2024-03-29T04:40:57;23.13;;;4.75;;
6342;SDS011;3204;42.698;23.298;2024-03-29T04:43:24;23.75;;;4.75;;
6342;SDS011;3204;42.698;23.298;2024-03-29T04:46:01;56.50;;;7.50;;
6342;SDS011;3204;42.698;23.298;2024-03-29T04:48:34;28.17;;;7.32;;
6342;SDS011;3204;42.698;23.298;2024-03-29T04:51:00;50.08;;;8.60;;
6342;SDS011;3204;42.698;23.298;2024-03-29T04:53:26;53.42;;;8.80;;
6342;SDS011;3204;42.698;23.298;2024-03-29T04:55:54;43.65;;;9.52;;
6342;SDS011;3204;42.698;23.298;2024-03-29T04:58:23;32.58;;;7.38;;
6342;SDS011;3204;42.698;23.298;2024-03-29T05:00:49;18.42;;;7.40;;
6342;SDS011;3204;42.698;23.298;2024-03-29T05:03:19;40.95;;;11.10;;
6342;SDS011;3204;42.698;23.298;2024-03-29T05:05:46;45.58;;;14.32;;
6342;SDS011;3204;42.698;23.298;2024-03-29T05:08:12;29.67;;;9.35;;
6342;SDS011;3204;42.698;23.298;2024-03-29T05:10:39;18.05;;;6.15;;
6342;SDS011;3204;42.698;23.298;2024-03-29T05:13:05;20.98;;;5.82;;
6342;SDS011;3204;42.698;23.298;2024-03-29T05:15:31;25.48;;;7.82;;
6342;SDS011;3204;42.698;23.298;2024-03-29T05:17:57;10.10;;;3.95;;
6342;SDS011;3204;42.698;23.298;2024-03-29T05:20:22;17.45;;;6.10;;
6342;SDS011;3204;42.698;23.298;2024-03-29T05:22:47;14.80;;;6.38;;
6342;SDS011;3204;42.698;23.298;2024-03-29T05:25:13;13.15;;;6.82;;
6342;SDS011;3204;42.698;23.298;2024-03-29T05:27:38;13.73;;;5.82;;
6342;SDS011;3204;42.698;23.298;2024-03-29T05:30:04;11.35;;;5.70;;
6342;SDS011;3204;42.698;23.298;2024-03-29T05:32:32;12.48;;;4.82;;
6342;SDS011;3204;42.698;23.298;2024-03-29T05:34:57;6.88;;;4.38;;
6342;SDS011;3204;42.698;23.298;2024-03-29T05:37:23;5.75;;;4.63;;
6342;SDS011;3204;42.698;23.298;2024-03-29T05:39:53;11.10;;;4.57;;
6342;SDS011;3204;42.698;23.298;2024-03-29T05:42:25;8.25;;;4.70;;
6342;SDS011;3204;42.698;23.298;2024-03-29T05:44:51;11.10;;;5.05;;
6342;SDS011;3204;42.698;23.298;2024-03-29T05:47:16;21.48;;;6.72;;
6342;SDS011;3204;42.698;23.298;2024-03-29T05:49:42;9.25;;;4.47;;
6342;SDS011;3204;42.698;23.298;2024-03-29T05:52:07;9.52;;;4.88;;
6342;SDS011;3204;42.698;23.298;2024-03-29T05:54:33;6.85;;;4.82;;
6342;SDS011;3204;42.698;23.298;2024-03-29T05:56:58;14.48;;;4.43;;
6342;SDS011;3204;42.698;23.298;2024-03-29T05:59:23;13.45;;;4.90;;
6342;SDS011;3204;42.698;23.298;2024-03-29T06:01:49;21.25;;;4.32;;
6342;SDS011;3204;42.698;23.298;2024-03-29T06:04:14;12.70;;;4.28;;
6342;SDS011;3204;42.698;23.298;2024-03-29T06:06:44;13.00;;;3.92;;
6342;SDS011;3204;42.698;23.298;2024-03-29T06:09:09;12.93;;;4.13;;
6342;SDS011;3204;42.698;23.298;2024-03-29T06:11:35;9.70;;;2.97;;
6342;SDS011;3204;42.698;23.298;2024-03-29T06:14:00;9.32;;;3.38;;
6342;SDS011;3204;42.698;23.298;2024-03-29T06:16:27;9.98;;;4.45;;
6342;SDS011;3204;42.698;23.298;2024-03-29T06:19:11;9.93;;;4.07;;
6342;SDS011;3204;42.698;23.298;2024-03-29T06:21:37;11.80;;;3.85;;
6342;SDS011;3204;42.698;23.298;2024-03-29T06:24:07;7.88;;;3.40;;
6342;SDS011;3204;42.698;23.298;2024-03-29T06:26:37;5.35;;;2.20;;
6342;SDS011;3204;42.698;23.298;2024-03-29T06:29:02;8.75;;;2.47;;
6342;SDS011;3204;42.698;23.298;2024-03-29T06:31:28;3.90;;;2.58;;
6342;SDS011;3204;42.698;23.298;2024-03-29T06:33:54;7.78;;;1.92;;
6342;SDS011;3204;42.698;23.298;2024-03-29T06:36:20;4.13;;;2.10;;
6342;SDS011;3204;42.698;23.298;2024-03-29T06:38:45;8.50;;;2.50;;
6342;SDS011;3204;42.698;23.298;2024-03-29T06:41:11;7.32;;;1.95;;
6342;SDS011;3204;42.698;23.298;2024-03-29T06:43:37;10.25;;;2.10;;
6342;SDS011;3204;42.698;23.298;2024-03-29T06:46:02;7.25;;;1.70;;
6342;SDS011;3204;42.698;23.298;2024-03-29T06:48:29;3.80;;;1.05;;
6342;SDS011;3204;42.698;23.298;2024-03-29T06:50:58;4.45;;;1.10;;
6342;SDS011;3204;42.698;23.298;2024-03-29T06:53:23;4.53;;;1.13;;
6342;SDS011;3204;42.698;23.298;2024-03-29T06:55:49;1.85;;;1.15;;
6342;SDS011;3204;42.698;23.298;2024-03-29T06:58:15;2.30;;;1.30;;
6342;SDS011;3204;42.698;23.298;2024-03-29T07:00:40;3.03;;;1.80;;
6342;SDS011;3204;42.698;23.298;2024-03-29T07:03:06;1.58;;;1.33;;
6342;SDS011;3204;42.698;23.298;2024-03-29T07:05:32;5.78;;;1.88;;
6342;SDS011;3204;42.698;23.298;2024-03-29T07:07:57;2.67;;;1.23;;
6342;SDS011;3204;42.698;23.298;2024-03-29T07:10:24;4.10;;;1.40;;
6342;SDS011;3204;42.698;23.298;2024-03-29T07:12:50;6.60;;;1.48;;
6342;SDS011;3204;42.698;23.298;2024-03-29T07:15:15;3.47;;;1.60;;
6342;SDS011;3204;42.698;23.298;2024-03-29T07:17:41;3.35;;;1.52;;
6342;SDS011;3204;42.698;23.298;2024-03-29T07:20:08;5.75;;;2.15;;
6342;SDS011;3204;42.698;23.298;2024-03-29T07:22:34;5.70;;;1.23;;
6342;SDS011;3204;42.698;23.298;2024-03-29T07:24:59;2.58;;;1.83;;
6342;SDS011;3204;42.698;23.298;2024-03-29T07:27:25;12.15;;;2.08;;
6342;SDS011;3204;42.698;23.298;2024-03-29T07:29:52;1.92;;;1.25;;
6342;SDS011;3204;42.698;23.298;2024-03-29T07:32:18;1.75;;;1.30;;
6342;SDS011;3204;42.698;23.298;2024-03-29T07:34:43;4.50;;;1.92;;
6342;SDS011;3204;42.698;23.298;2024-03-29T07:37:09;6.03;;;1.25;;
6342;SDS011;3204;42.698;23.298;2024-03-29T07:39:40;6.35;;;1.30;;
6342;SDS011;3204;42.698;23.298;2024-03-29T07:42:05;3.33;;;1.25;;
6342;SDS011;3204;42.698;23.298;2024-03-29T07:44:31;1.50;;;1.40;;
6342;SDS011;3204;42.698;23.298;2024-03-29T07:46:56;3.65;;;1.45;;
6342;SDS011;3204;42.698;23.298;2024-03-29T07:49:22;2.05;;;1.40;;
6342;SDS011;3204;42.698;23.298;2024-03-29T07:51:47;9.65;;;1.95;;
6342;SDS011;3204;42.698;23.298;2024-03-29T07:54:13;10.93;;;1.77;;
6342;SDS011;3204;42.698;23.298;2024-03-29T07:56:38;2.13;;;1.40;;
6342;SDS011;3204;42.698;23.298;2024-03-29T07:59:04;3.88;;;2.20;;
6342;SDS011;3204;42.698;23.298;2024-03-29T08:01:29;2.75;;;1.40;;
6342;SDS011;3204;42.698;23.298;2024-03-29T08:03:55;2.38;;;1.25;;
6342;SDS011;3204;42.698;23.298;2024-03-29T08:06:20;6.45;;;1.33;;
6342;SDS011;3204;42.698;23.298;2024-03-29T08:08:48;5.93;;;1.67;;
6342;SDS011;3204;42.698;23.298;2024-03-29T08:11:13;5.90;;;1.40;;
6342;SDS011;3204;42.698;23.298;2024-03-29T08:13:39;3.08;;;1.30;;
6342;SDS011;3204;42.698;23.298;2024-03-29T08:16:06;2.55;;;1.25;;
6342;SDS011;3204;42.698;23.298;2024-03-29T08:18:32;4.68;;;1.20;;
6342;SDS011;3204;42.698;23.298;2024-03-29T08:20:58;3.10;;;1.08;;
6342;SDS011;3204;42.698;23.298;2024-03-29T08:23:24;1.65;;;1.00;;
6342;SDS011;3204;42.698;23.298;2024-03-29T08:25:50;2.47;;;1.05;;
6342;SDS011;3204;42.698;23.298;2024-03-29T08:28:20;3.80;;;1.30;;
6342;SDS011;3204;42.698;23.298;2024-03-29T08:30:45;3.63;;;1.25;;
6342;SDS011;3204;42.698;23.298;2024-03-29T08:33:21;1.27;;;1.00;;
6342;SDS011;3204;42.698;23.298;2024-03-29T08:35:48;5.38;;;1.00;;
6342;SDS011;3204;42.698;23.298;2024-03-29T08:38:13;1.30;;;1.20;;
6342;SDS011;3204;42.698;23.298;2024-03-29T08:40:38;2.83;;;1.27;;
6342;SDS011;3204;42.698;23.298;2024-03-29T08:43:07;6.45;;;1.40;;
6342;SDS011;3204;42.698;23.298;2024-03-29T08:45:32;1.20;;;1.02;;
6342;SDS011;3204;42.698;23.298;2024-03-29T08:47:58;4.90;;;0.90;;
6342;SDS011;3204;42.698;23.298;2024-03-29T08:50:23;4.38;;;1.33;;
6342;SDS011;3204;42.698;23.298;2024-03-29T08:52:48;2.50;;;1.25;;
6342;SDS011;3204;42.698;23.298;2024-03-29T08:55:14;1.73;;;1.05;;
6342;SDS011;3204;42.698;23.298;2024-03-29T08:57:39;3.35;;;0.90;;
6342;SDS011;3204;42.698;23.298;2024-03-29T09:00:05;2.42;;;0.80;;
6342;SDS011;3204;42.698;23.298;2024-03-29T09:02:31;2.53;;;1.10;;
6342;SDS011;3204;42.698;23.298;2024-03-29T09:04:57;4.43;;;1.20;;
6342;SDS011;3204;42.698;23.298;2024-03-29T09:07:23;2.42;;;1.02;;
6342;SDS011;3204;42.698;23.298;2024-03-29T09:09:49;2.20;;;0.80;;
6342;SDS011;3204;42.698;23.298;2024-03-29T09:12:15;3.20;;;1.70;;
6342;SDS011;3204;42.698;23.298;2024-03-29T09:14:41;2.03;;;0.82;;
6342;SDS011;3204;42.698;23.298;2024-03-29T09:17:06;1.67;;;0.73;;
6342;SDS011;3204;42.698;23.298;2024-03-29T09:19:33;2.33;;;1.27;;
6342;SDS011;3204;42.698;23.298;2024-03-29T09:21:58;3.20;;;1.20;;
6342;SDS011;3204;42.698;23.298;2024-03-29T09:24:24;3.92;;;1.05;;
6342;SDS011;3204;42.698;23.298;2024-03-29T09:26:51;3.78;;;1.20;;
6342;SDS011;3204;42.698;23.298;2024-03-29T09:29:16;2.28;;;0.80;;
6342;SDS011;3204;42.698;23.298;2024-03-29T09:31:45;2.80;;;0.88;;
6342;SDS011;3204;42.698;23.298;2024-03-29T09:34:10;2.15;;;0.90;;
6342;SDS011;3204;42.698;23.298;2024-03-29T09:36:36;1.75;;;0.65;;
6342;SDS011;3204;42.698;23.298;2024-03-29T09:39:01;1.58;;;1.48;;
6342;SDS011;3204;42.698;23.298;2024-03-29T09:41:29;2.20;;;1.10;;
6342;SDS011;3204;42.698;23.298;2024-03-29T09:43:56;4.28;;;1.00;;
6342;SDS011;3204;42.698;23.298;2024-03-29T09:46:24;4.25;;;1.00;;
6342;SDS011;3204;42.698;23.298;2024-03-29T09:48:52;2.15;;;0.80;;
6342;SDS011;3204;42.698;23.298;2024-03-29T09:51:19;3.33;;;1.00;;
6342;SDS011;3204;42.698;23.298;2024-03-29T09:53:46;1.40;;;0.90;;
6342;SDS011;3204;42.698;23.298;2024-03-29T09:56:13;4.03;;;1.00;;
6342;SDS011;3204;42.698;23.298;2024-03-29T09:58:39;2.53;;;1.13;;
6342;SDS011;3204;42.698;23.298;2024-03-29T10:01:05;1.65;;;1.38;;
6342;SDS011;3204;42.698;23.298;2024-03-29T10:03:35;3.10;;;1.10;;
6342;SDS011;3204;42.698;23.298;2024-03-29T10:06:04;3.08;;;1.42;;
6342;SDS011;3204;42.698;23.298;2024-03-29T10:08:33;1.92;;;1.30;;
6342;SDS011;3204;42.698;23.298;2024-03-29T10:10:59;3.25;;;1.30;;
6342;SDS011;3204;42.698;23.298;2024-03-29T10:13:25;3.25;;;1.88;;
6342;SDS011;3204;42.698;23.298;2024-03-29T10:15:51;2.08;;;1.50;;
6342;SDS011;3204;42.698;23.298;2024-03-29T10:18:20;2.15;;;1.13;;
6342;SDS011;3204;42.698;23.298;2024-03-29T10:20:46;1.10;;;0.82;;
6342;SDS011;3204;42.698;23.298;2024-03-29T10:23:11;1.67;;;1.40;;
6342;SDS011;3204;42.698;23.298;2024-03-29T10:25:37;2.97;;;1.33;;
6342;SDS011;3204;42.698;23.298;2024-03-29T10:28:03;5.18;;;1.45;;
6342;SDS011;3204;42.698;23.298;2024-03-29T10:30:29;1.92;;;1.33;;
6342;SDS011;3204;42.698;23.298;2024-03-29T10:32:55;4.13;;;2.05;;
6342;SDS011;3204;42.698;23.298;2024-03-29T10:35:22;3.08;;;1.30;;
6342;SDS011;3204;42.698;23.298;2024-03-29T10:37:47;2.13;;;1.15;;
6342;SDS011;3204;42.698;23.298;2024-03-29T10:40:13;2.35;;;0.98;;
6342;SDS011;3204;42.698;23.298;2024-03-29T10:42:42;4.70;;;1.35;;
6342;SDS011;3204;42.698;23.298;2024-03-29T10:45:09;4.15;;;1.27;;
6342;SDS011;3204;42.698;23.298;2024-03-29T10:47:34;2.83;;;0.90;;
6342;SDS011;3204;42.698;23.298;2024-03-29T10:50:01;3.83;;;1.30;;
6342;SDS011;3204;42.698;23.298;2024-03-29T10:52:30;3.92;;;1.30;;
6342;SDS011;3204;42.698;23.298;2024-03-29T10:54:55;2.50;;;2.03;;
6342;SDS011;3204;42.698;23.298;2024-03-29T10:57:24;4.85;;;1.20;;
6342;SDS011;3204;42.698;23.298;2024-03-29T11:05:01;4.80;;;1.20;;
6342;SDS011;3204;42.698;23.298;2024-03-29T11:07:31;1.75;;;0.95;;
6342;SDS011;3204;42.698;23.298;2024-03-29T11:10:00;2.25;;;1.20;;
6342;SDS011;3204;42.698;23.298;2024-03-29T11:12:27;2.58;;;1.33;;
6342;SDS011;3204;42.698;23.298;2024-03-29T11:15:02;4.93;;;1.35;;
6342;SDS011;3204;42.698;23.298;2024-03-29T11:17:30;1.52;;;1.00;;
6342;SDS011;3204;42.698;23.298;2024-03-29T11:19:56;3.22;;;1.90;;
6342;SDS011;3204;42.698;23.298;2024-03-29T11:22:24;4.65;;;1.40;;
6342;SDS011;3204;42.698;23.298;2024-03-29T11:24:51;4.57;;;1.27;;
6342;SDS011;3204;42.698;23.298;2024-03-29T11:27:16;2.58;;;1.23;;
6342;SDS011;3204;42.698;23.298;2024-03-29T11:29:44;4.93;;;4.05;;
6342;SDS011;3204;42.698;23.298;2024-03-29T11:32:11;3.13;;;2.63;;
6342;SDS011;3204;42.698;23.298;2024-03-29T11:34:42;1.73;;;1.20;;
6342;SDS011;3204;42.698;23.298;2024-03-29T11:37:12;4.70;;;1.83;;
6342;SDS011;3204;42.698;23.298;2024-03-29T11:39:38;5.53;;;1.80;;
6342;SDS011;3204;42.698;23.298;2024-03-29T11:42:05;2.33;;;1.30;;
6342;SDS011;3204;42.698;23.298;2024-03-29T11:44:31;4.68;;;1.30;;
6342;SDS011;3204;42.698;23.298;2024-03-29T11:46:57;3.40;;;1.08;;
6342;SDS011;3204;42.698;23.298;2024-03-29T11:49:23;2.85;;;1.20;;
6342;SDS011;3204;42.698;23.298;2024-03-29T11:51:49;4.20;;;1.17;;
6342;SDS011;3204;42.698;23.298;2024-03-29T11:54:14;5.50;;;1.30;;
6342;SDS011;3204;42.698;23.298;2024-03-29T11:56:41;3.38;;;1.20;;
6342;SDS011;3204;42.698;23.298;2024-03-29T11:59:07;2.83;;;0.90;;
6342;SDS011;3204;42.698;23.298;2024-03-29T12:01:33;1.52;;;1.08;;
6342;SDS011;3204;42.698;23.298;2024-03-29T12:03:59;2.10;;;1.10;;
6342;SDS011;3204;42.698;23.298;2024-03-29T12:06:25;2.05;;;0.90;;
6342;SDS011;3204;42.698;23.298;2024-03-29T12:08:50;1.88;;;1.35;;
6342;SDS011;3204;42.698;23.298;2024-03-29T12:11:18;3.75;;;1.10;;
6342;SDS011;3204;42.698;23.298;2024-03-29T12:13:44;3.15;;;1.90;;
6342;SDS011;3204;42.698;23.298;2024-03-29T12:16:09;3.90;;;1.35;;
6342;SDS011;3204;42.698;23.298;2024-03-29T12:18:35;1.98;;;1.08;;
6342;SDS011;3204;42.698;23.298;2024-03-29T12:21:01;5.70;;;1.38;;
6342;SDS011;3204;42.698;23.298;2024-03-29T12:23:27;6.32;;;1.23;;
6342;SDS011;3204;42.698;23.298;2024-03-29T12:25:56;3.00;;;0.88;;
6342;SDS011;3204;42.698;23.298;2024-03-29T12:28:23;2.55;;;1.10;;
6342;SDS011;3204;42.698;23.298;2024-03-29T12:30:49;2.58;;;1.00;;
6342;SDS011;3204;42.698;23.298;2024-03-29T12:33:16;2.42;;;0.90;;
6342;SDS011;3204;42.698;23.298;2024-03-29T12:35:45;2.25;;;1.10;;
6342;SDS011;3204;42.698;23.298;2024-03-29T12:38:15;1.42;;;1.10;;
6342;SDS011;3204;42.698;23.298;2024-03-29T12:40:43;1.98;;;1.45;;
6342;SDS011;3204;42.698;23.298;2024-03-29T12:43:12;2.17;;;1.08;;
6342;SDS011;3204;42.698;23.298;2024-03-29T12:45:40;2.38;;;1.23;;
6342;SDS011;3204;42.698;23.298;2024-03-29T12:48:14;4.07;;;1.02;;
6342;SDS011;3204;42.698;23.298;2024-03-29T12:50:41;1.60;;;0.93;;
6342;SDS011;3204;42.698;23.298;2024-03-29T12:53:08;3.35;;;1.27;;
6342;SDS011;3204;42.698;23.298;2024-03-29T12:55:35;3.10;;;1.30;;
6342;SDS011;3204;42.698;23.298;2024-03-29T12:58:01;1.38;;;1.00;;
6342;SDS011;3204;42.698;23.298;2024-03-29T13:00:30;1.95;;;1.10;;
6342;SDS011;3204;42.698;23.298;2024-03-29T13:02:56;2.15;;;0.80;;
6342;SDS011;3204;42.698;23.298;2024-03-29T13:05:21;2.15;;;0.70;;
6342;SDS011;3204;42.698;23.298;2024-03-29T13:07:47;4.95;;;1.08;;
6342;SDS011;3204;42.698;23.298;2024-03-29T13:10:13;2.35;;;1.00;;
6342;SDS011;3204;42.698;23.298;2024-03-29T13:12:42;4.13;;;1.20;;
6342;SDS011;3204;42.698;23.298;2024-03-29T13:15:41;2.72;;;1.00;;
6342;SDS011;3204;42.698;23.298;2024-03-29T13:18:01;3.92;;;1.30;;
6342;SDS011;3204;42.698;23.298;2024-03-29T13:20:28;6.03;;;1.00;;
6342;SDS011;3204;42.698;23.298;2024-03-29T13:22:55;3.50;;;1.25;;
6342;SDS011;3204;42.698;23.298;2024-03-29T13:25:21;0.98;;;0.90;;
6342;SDS011;3204;42.698;23.298;2024-03-29T13:27:50;1.42;;;0.85;;
6342;SDS011;3204;42.698;23.298;2024-03-29T13:30:19;4.25;;;1.05;;
6342;SDS011;3204;42.698;23.298;2024-03-29T13:32:45;3.35;;;0.85;;
6342;SDS011;3204;42.698;23.298;2024-03-29T13:35:11;1.02;;;0.90;;
6342;SDS011;3204;42.698;23.298;2024-03-29T13:37:40;1.70;;;1.00;;
6342;SDS011;3204;42.698;23.298;2024-03-29T13:40:14;1.17;;;0.73;;
6342;SDS011;3204;42.698;23.298;2024-03-29T13:42:40;3.30;;;0.80;;
6342;SDS011;3204;42.698;23.298;2024-03-29T13:45:05;3.33;;;0.95;;
6342;SDS011;3204;42.698;23.298;2024-03-29T13:47:32;3.40;;;1.00;;
6342;SDS011;3204;42.698;23.298;2024-03-29T13:49:58;1.13;;;0.50;;
6342;SDS011;3204;42.698;23.298;2024-03-29T13:52:24;2.90;;;1.10;;
6342;SDS011;3204;42.698;23.298;2024-03-29T13:54:49;3.28;;;0.70;;
6342;SDS011;3204;42.698;23.298;2024-03-29T13:57:18;3.47;;;0.80;;
6342;SDS011;3204;42.698;23.298;2024-03-29T13:59:44;2.55;;;0.88;;
6342;SDS011;3204;42.698;23.298;2024-03-29T14:02:11;2.38;;;0.95;;
6342;SDS011;3204;42.698;23.298;2024-03-29T14:04:38;1.95;;;1.00;;
6342;SDS011;3204;42.698;23.298;2024-03-29T14:07:04;1.90;;;1.25;;
6342;SDS011;3204;42.698;23.298;2024-03-29T14:09:32;3.80;;;0.95;;
6342;SDS011;3204;42.698;23.298;2024-03-29T14:11:59;3.97;;;0.70;;
6342;SDS011;3204;42.698;23.298;2024-03-29T14:14:24;3.15;;;0.82;;
6342;SDS011;3204;42.698;23.298;2024-03-29T14:16:49;5.25;;;0.60;;
6342;SDS011;3204;42.698;23.298;2024-03-29T14:19:15;1.77;;;0.93;;
6342;SDS011;3204;42.698;23.298;2024-03-29T14:21:40;1.02;;;0.68;;
6342;SDS011;3204;42.698;23.298;2024-03-29T14:24:06;6.50;;;1.00;;
6342;SDS011;3204;42.698;23.298;2024-03-29T14:26:31;1.25;;;0.70;;
6342;SDS011;3204;42.698;23.298;2024-03-29T14:28:56;2.63;;;0.80;;
6342;SDS011;3204;42.698;23.298;2024-03-29T14:31:22;6.10;;;1.20;;
6342;SDS011;3204;42.698;23.298;2024-03-29T14:33:48;4.50;;;1.38;;
6342;SDS011;3204;42.698;23.298;2024-03-29T14:36:13;5.75;;;1.15;;
6342;SDS011;3204;42.698;23.298;2024-03-29T14:38:39;1.38;;;0.90;;
6342;SDS011;3204;42.698;23.298;2024-03-29T14:41:04;3.10;;;0.80;;
6342;SDS011;3204;42.698;23.298;2024-03-29T14:43:30;8.10;;;1.00;;
6342;SDS011;3204;42.698;23.298;2024-03-29T14:45:55;1.27;;;0.70;;
6342;SDS011;3204;42.698;23.298;2024-03-29T14:48:20;1.80;;;0.70;;
6342;SDS011;3204;42.698;23.298;2024-03-29T14:50:46;2.72;;;0.77;;
6342;SDS011;3204;42.698;23.298;2024-03-29T14:53:11;2.08;;;0.88;;
6342;SDS011;3204;42.698;23.298;2024-03-29T14:55:37;0.70;;;0.65;;
6342;SDS011;3204;42.698;23.298;2024-03-29T14:58:05;1.55;;;0.90;;
6342;SDS011;3204;42.698;23.298;2024-03-29T15:00:31;2.88;;;0.90;;